sensor_id;sensor_type;location;lat;lon;timestamp;P1;durP1;ratioP1;P2;durP2;ratioP2
21820;SDS011;11073;48.586;12.066;2023-04-23T00:00:15;4.75;;;3.50;;
21820;SDS011;11073;48.586;12.066;2023-04-23T00:02:45;6.20;;;3.33;;
21820;SDS011;11073;48.586;12.066;2023-04-23T00:05:17;3.25;;;2.90;;
21820;SDS011;11073;48.586;12.066;2023-04-23T00:07:49;6.05;;;2.88;;
21820;SDS011;11073;48.586;12.066;2023-04-23T00:10:17;5.72;;;3.65;;
21820;SDS011;11073;48.586;12.066;2023-04-23T00:12:48;3.35;;;3.05;;
21820;SDS011;11073;48.586;12.066;2023-04-23T00:15:17;5.85;;;3.40;;
21820;SDS011;11073;48.586;12.066;2023-04-23T00:17:48;5.60;;;3.60;;
21820;SDS011;11073;48.586;12.066;2023-04-23T00:20:17;4.60;;;3.03;;
21820;SDS011;11073;48.586;12.066;2023-04-23T00:22:45;3.80;;;2.60;;
21820;SDS011;11073;48.586;12.066;2023-04-23T00:25:14;4.30;;;3.10;;
21820;SDS011;11073;48.586;12.066;2023-04-23T00:27:43;4.35;;;2.85;;
21820;SDS011;11073;48.586;12.066;2023-04-23T00:30:13;4.18;;;2.33;;
21820;SDS011;11073;48.586;12.066;2023-04-23T00:32:43;4.65;;;2.78;;
21820;SDS011;11073;48.586;12.066;2023-04-23T00:35:12;3.13;;;2.72;;
21820;SDS011;11073;48.586;12.066;2023-04-23T00:37:41;3.50;;;2.47;;
21820;SDS011;11073;48.586;12.066;2023-04-23T00:40:09;4.75;;;2.88;;
21820;SDS011;11073;48.586;12.066;2023-04-23T00:42:39;3.95;;;3.15;;
21820;SDS011;11073;48.586;12.066;2023-04-23T00:45:08;6.43;;;2.88;;
21820;SDS011;11073;48.586;12.066;2023-04-23T00:47:40;3.38;;;2.83;;
21820;SDS011;11073;48.586;12.066;2023-04-23T00:50:10;3.45;;;2.90;;
21820;SDS011;11073;48.586;12.066;2023-04-23T00:52:39;4.80;;;3.13;;
21820;SDS011;11073;48.586;12.066;2023-04-23T00:55:08;3.90;;;2.78;;
21820;SDS011;11073;48.586;12.066;2023-04-23T00:57:37;4.20;;;3.10;;
21820;SDS011;11073;48.586;12.066;2023-04-23T01:00:08;7.20;;;3.85;;
21820;SDS011;11073;48.586;12.066;2023-04-23T01:02:41;5.80;;;3.28;;
21820;SDS011;11073;48.586;12.066;2023-04-23T01:05:11;4.15;;;3.00;;
21820;SDS011;11073;48.586;12.066;2023-04-23T01:07:44;3.90;;;2.60;;
21820;SDS011;11073;48.586;12.066;2023-04-23T01:10:14;3.58;;;2.92;;
21820;SDS011;11073;48.586;12.066;2023-04-23T01:12:45;4.55;;;2.85;;
21820;SDS011;11073;48.586;12.066;2023-04-23T01:15:15;4.68;;;2.70;;
21820;SDS011;11073;48.586;12.066;2023-04-23T01:17:45;4.57;;;2.67;;
21820;SDS011;11073;48.586;12.066;2023-04-23T01:20:15;3.03;;;2.30;;
21820;SDS011;11073;48.586;12.066;2023-04-23T01:22:46;4.45;;;2.53;;
21820;SDS011;11073;48.586;12.066;2023-04-23T01:25:15;4.93;;;2.70;;
21820;SDS011;11073;48.586;12.066;2023-04-23T01:27:44;3.08;;;2.75;;
21820;SDS011;11073;48.586;12.066;2023-04-23T01:30:13;3.85;;;2.67;;
21820;SDS011;11073;48.586;12.066;2023-04-23T01:32:42;3.55;;;3.13;;
21820;SDS011;11073;48.586;12.066;2023-04-23T01:35:11;5.65;;;3.58;;
21820;SDS011;11073;48.586;12.066;2023-04-23T01:37:41;4.00;;;3.28;;
21820;SDS011;11073;48.586;12.066;2023-04-23T01:40:13;6.55;;;2.83;;
21820;SDS011;11073;48.586;12.066;2023-04-23T01:42:42;4.22;;;3.30;;
21820;SDS011;11073;48.586;12.066;2023-04-23T01:45:11;3.50;;;2.95;;
21820;SDS011;11073;48.586;12.066;2023-04-23T01:47:40;3.95;;;3.20;;
21820;SDS011;11073;48.586;12.066;2023-04-23T01:50:09;5.88;;;3.05;;
21820;SDS011;11073;48.586;12.066;2023-04-23T01:52:38;4.15;;;2.50;;
21820;SDS011;11073;48.586;12.066;2023-04-23T01:55:08;3.65;;;2.85;;
21820;SDS011;11073;48.586;12.066;2023-04-23T01:57:38;3.17;;;2.70;;
21820;SDS011;11073;48.586;12.066;2023-04-23T02:00:09;4.45;;;3.28;;
21820;SDS011;11073;48.586;12.066;2023-04-23T02:02:40;3.20;;;2.70;;
21820;SDS011;11073;48.586;12.066;2023-04-23T02:05:11;2.97;;;2.67;;
21820;SDS011;11073;48.586;12.066;2023-04-23T02:07:43;4.30;;;2.85;;
21820;SDS011;11073;48.586;12.066;2023-04-23T02:10:14;5.07;;;2.58;;
21820;SDS011;11073;48.586;12.066;2023-04-23T02:12:44;4.45;;;2.78;;
21820;SDS011;11073;48.586;12.066;2023-04-23T02:15:13;4.22;;;3.13;;
21820;SDS011;11073;48.586;12.066;2023-04-23T02:17:43;5.13;;;3.05;;
21820;SDS011;11073;48.586;12.066;2023-04-23T02:20:12;3.35;;;3.00;;
21820;SDS011;11073;48.586;12.066;2023-04-23T02:22:41;3.40;;;3.00;;
21820;SDS011;11073;48.586;12.066;2023-04-23T02:25:10;4.00;;;3.05;;
21820;SDS011;11073;48.586;12.066;2023-04-23T02:27:41;3.28;;;2.70;;
21820;SDS011;11073;48.586;12.066;2023-04-23T02:30:12;4.05;;;3.08;;
21820;SDS011;11073;48.586;12.066;2023-04-23T02:32:41;3.47;;;3.13;;
21820;SDS011;11073;48.586;12.066;2023-04-23T02:35:10;3.67;;;3.00;;
21820;SDS011;11073;48.586;12.066;2023-04-23T02:37:39;3.58;;;3.00;;
21820;SDS011;11073;48.586;12.066;2023-04-23T02:40:08;4.75;;;3.75;;
21820;SDS011;11073;48.586;12.066;2023-04-23T02:42:38;4.57;;;3.60;;
21820;SDS011;11073;48.586;12.066;2023-04-23T02:45:11;3.70;;;3.40;;
21820;SDS011;11073;48.586;12.066;2023-04-23T02:47:40;4.95;;;3.33;;
21820;SDS011;11073;48.586;12.066;2023-04-23T02:50:10;4.47;;;3.38;;
21820;SDS011;11073;48.586;12.066;2023-04-23T02:52:39;3.53;;;3.22;;
21820;SDS011;11073;48.586;12.066;2023-04-23T02:55:08;5.10;;;3.80;;
21820;SDS011;11073;48.586;12.066;2023-04-23T02:57:38;5.70;;;3.30;;
21820;SDS011;11073;48.586;12.066;2023-04-23T03:00:08;5.07;;;3.50;;
21820;SDS011;11073;48.586;12.066;2023-04-23T03:02:42;5.55;;;3.47;;
21820;SDS011;11073;48.586;12.066;2023-04-23T03:05:11;4.10;;;3.42;;
21820;SDS011;11073;48.586;12.066;2023-04-23T03:07:41;5.00;;;3.88;;
21820;SDS011;11073;48.586;12.066;2023-04-23T03:10:10;4.28;;;3.80;;
21820;SDS011;11073;48.586;12.066;2023-04-23T03:12:39;6.10;;;4.40;;
21820;SDS011;11073;48.586;12.066;2023-04-23T03:15:08;5.88;;;3.58;;
21820;SDS011;11073;48.586;12.066;2023-04-23T03:17:38;4.72;;;3.65;;
21820;SDS011;11073;48.586;12.066;2023-04-23T03:20:09;5.05;;;3.63;;
21820;SDS011;11073;48.586;12.066;2023-04-23T03:22:39;4.68;;;3.70;;
21820;SDS011;11073;48.586;12.066;2023-04-23T03:25:08;5.82;;;3.65;;
21820;SDS011;11073;48.586;12.066;2023-04-23T03:27:37;3.90;;;3.50;;
21820;SDS011;11073;48.586;12.066;2023-04-23T03:30:07;5.80;;;4.07;;
21820;SDS011;11073;48.586;12.066;2023-04-23T03:32:36;5.47;;;3.60;;
21820;SDS011;11073;48.586;12.066;2023-04-23T03:35:06;5.22;;;3.90;;
21820;SDS011;11073;48.586;12.066;2023-04-23T03:37:40;6.82;;;4.00;;
21820;SDS011;11073;48.586;12.066;2023-04-23T03:40:09;4.90;;;3.90;;
21820;SDS011;11073;48.586;12.066;2023-04-23T03:42:40;7.40;;;3.85;;
21820;SDS011;11073;48.586;12.066;2023-04-23T03:45:11;5.18;;;4.00;;
21820;SDS011;11073;48.586;12.066;2023-04-23T03:47:41;5.82;;;3.97;;
21820;SDS011;11073;48.586;12.066;2023-04-23T03:50:11;5.45;;;3.88;;
21820;SDS011;11073;48.586;12.066;2023-04-23T03:52:59;4.25;;;3.60;;
21820;SDS011;11073;48.586;12.066;2023-04-23T03:55:48;6.18;;;4.63;;
21820;SDS011;11073;48.586;12.066;2023-04-23T03:58:16;4.40;;;3.80;;
21820;SDS011;11073;48.586;12.066;2023-04-23T04:00:46;6.55;;;3.90;;
21820;SDS011;11073;48.586;12.066;2023-04-23T04:03:15;5.40;;;3.85;;
21820;SDS011;11073;48.586;12.066;2023-04-23T04:05:44;7.40;;;3.95;;
21820;SDS011;11073;48.586;12.066;2023-04-23T04:08:13;4.82;;;4.20;;
21820;SDS011;11073;48.586;12.066;2023-04-23T04:10:42;4.22;;;3.58;;
21820;SDS011;11073;48.586;12.066;2023-04-23T04:13:11;6.68;;;4.00;;
21820;SDS011;11073;48.586;12.066;2023-04-23T04:15:42;5.82;;;4.05;;
21820;SDS011;11073;48.586;12.066;2023-04-23T04:18:11;5.38;;;4.20;;
21820;SDS011;11073;48.586;12.066;2023-04-23T04:20:40;5.60;;;4.38;;
21820;SDS011;11073;48.586;12.066;2023-04-23T04:23:10;6.70;;;3.97;;
21820;SDS011;11073;48.586;12.066;2023-04-23T04:25:40;7.20;;;4.72;;
21820;SDS011;11073;48.586;12.066;2023-04-23T04:28:09;5.60;;;4.68;;
21820;SDS011;11073;48.586;12.066;2023-04-23T04:30:37;10.15;;;4.85;;
21820;SDS011;11073;48.586;12.066;2023-04-23T04:33:08;6.10;;;4.80;;
21820;SDS011;11073;48.586;12.066;2023-04-23T04:35:37;7.93;;;4.72;;
21820;SDS011;11073;48.586;12.066;2023-04-23T04:38:06;7.38;;;4.55;;
21820;SDS011;11073;48.586;12.066;2023-04-23T04:40:35;6.32;;;5.07;;
21820;SDS011;11073;48.586;12.066;2023-04-23T04:43:05;5.15;;;4.57;;
21820;SDS011;11073;48.586;12.066;2023-04-23T04:45:33;5.38;;;4.20;;
21820;SDS011;11073;48.586;12.066;2023-04-23T04:48:02;5.93;;;4.15;;
21820;SDS011;11073;48.586;12.066;2023-04-23T04:50:31;6.07;;;3.85;;
21820;SDS011;11073;48.586;12.066;2023-04-23T04:53:00;4.28;;;3.88;;
21820;SDS011;11073;48.586;12.066;2023-04-23T04:55:29;5.07;;;3.65;;
21820;SDS011;11073;48.586;12.066;2023-04-23T04:57:58;8.70;;;4.28;;
21820;SDS011;11073;48.586;12.066;2023-04-23T05:00:28;5.50;;;4.30;;
21820;SDS011;11073;48.586;12.066;2023-04-23T05:02:57;7.07;;;3.58;;
21820;SDS011;11073;48.586;12.066;2023-04-23T05:05:27;4.53;;;4.10;;
21820;SDS011;11073;48.586;12.066;2023-04-23T05:07:57;4.93;;;4.28;;
21820;SDS011;11073;48.586;12.066;2023-04-23T05:10:28;4.55;;;3.50;;
21820;SDS011;11073;48.586;12.066;2023-04-23T05:12:57;7.53;;;3.97;;
21820;SDS011;11073;48.586;12.066;2023-04-23T05:15:25;5.15;;;4.00;;
21820;SDS011;11073;48.586;12.066;2023-04-23T05:17:56;5.45;;;3.88;;
21820;SDS011;11073;48.586;12.066;2023-04-23T05:20:24;4.72;;;4.00;;
21820;SDS011;11073;48.586;12.066;2023-04-23T05:22:54;4.40;;;4.00;;
21820;SDS011;11073;48.586;12.066;2023-04-23T05:25:25;5.05;;;3.75;;
21820;SDS011;11073;48.586;12.066;2023-04-23T05:27:54;5.68;;;3.88;;
21820;SDS011;11073;48.586;12.066;2023-04-23T05:30:23;4.63;;;3.78;;
21820;SDS011;11073;48.586;12.066;2023-04-23T05:32:51;3.90;;;3.42;;
21820;SDS011;11073;48.586;12.066;2023-04-23T05:35:22;7.07;;;4.03;;
21820;SDS011;11073;48.586;12.066;2023-04-23T05:37:51;4.70;;;3.78;;
21820;SDS011;11073;48.586;12.066;2023-04-23T05:40:20;4.88;;;3.70;;
21820;SDS011;11073;48.586;12.066;2023-04-23T05:42:48;4.95;;;3.45;;
21820;SDS011;11073;48.586;12.066;2023-04-23T05:45:17;6.90;;;3.83;;
21820;SDS011;11073;48.586;12.066;2023-04-23T05:47:45;5.18;;;4.00;;
21820;SDS011;11073;48.586;12.066;2023-04-23T05:50:15;5.47;;;3.33;;
21820;SDS011;11073;48.586;12.066;2023-04-23T05:52:46;5.15;;;3.35;;
21820;SDS011;11073;48.586;12.066;2023-04-23T05:55:14;4.28;;;2.80;;
21820;SDS011;11073;48.586;12.066;2023-04-23T05:57:44;4.75;;;2.90;;
21820;SDS011;11073;48.586;12.066;2023-04-23T06:00:14;5.72;;;3.33;;
21820;SDS011;11073;48.586;12.066;2023-04-23T06:02:44;4.75;;;2.92;;
21820;SDS011;11073;48.586;12.066;2023-04-23T06:05:14;7.88;;;3.30;;
21820;SDS011;11073;48.586;12.066;2023-04-23T06:07:45;4.03;;;2.90;;
21820;SDS011;11073;48.586;12.066;2023-04-23T06:10:14;5.80;;;3.10;;
21820;SDS011;11073;48.586;12.066;2023-04-23T06:12:42;4.28;;;3.10;;
21820;SDS011;11073;48.586;12.066;2023-04-23T06:15:11;5.22;;;3.33;;
21820;SDS011;11073;48.586;12.066;2023-04-23T06:17:40;4.72;;;3.20;;
21820;SDS011;11073;48.586;12.066;2023-04-23T06:20:09;5.10;;;3.10;;
21820;SDS011;11073;48.586;12.066;2023-04-23T06:22:38;5.85;;;3.10;;
21820;SDS011;11073;48.586;12.066;2023-04-23T06:25:08;8.35;;;3.38;;
21820;SDS011;11073;48.586;12.066;2023-04-23T06:27:37;4.30;;;3.35;;
21820;SDS011;11073;48.586;12.066;2023-04-23T06:30:13;5.70;;;3.70;;
21820;SDS011;11073;48.586;12.066;2023-04-23T06:32:43;6.57;;;3.63;;
21820;SDS011;11073;48.586;12.066;2023-04-23T06:35:23;5.47;;;3.35;;
21820;SDS011;11073;48.586;12.066;2023-04-23T06:38:06;6.15;;;3.10;;
21820;SDS011;11073;48.586;12.066;2023-04-23T06:40:36;5.38;;;3.35;;
21820;SDS011;11073;48.586;12.066;2023-04-23T06:43:05;5.20;;;3.50;;
21820;SDS011;11073;48.586;12.066;2023-04-23T06:45:57;4.80;;;3.42;;
21820;SDS011;11073;48.586;12.066;2023-04-23T06:48:26;7.75;;;3.83;;
21820;SDS011;11073;48.586;12.066;2023-04-23T06:50:55;5.32;;;3.42;;
21820;SDS011;11073;48.586;12.066;2023-04-23T06:53:23;6.97;;;3.75;;
21820;SDS011;11073;48.586;12.066;2023-04-23T06:55:53;3.78;;;3.40;;
21820;SDS011;11073;48.586;12.066;2023-04-23T06:58:22;5.95;;;3.67;;
21820;SDS011;11073;48.586;12.066;2023-04-23T07:00:57;5.10;;;3.20;;
21820;SDS011;11073;48.586;12.066;2023-04-23T07:03:29;6.63;;;3.50;;
21820;SDS011;11073;48.586;12.066;2023-04-23T07:05:58;5.25;;;3.92;;
21820;SDS011;11073;48.586;12.066;2023-04-23T07:08:27;6.20;;;3.78;;
21820;SDS011;11073;48.586;12.066;2023-04-23T07:10:58;3.38;;;2.80;;
21820;SDS011;11073;48.586;12.066;2023-04-23T07:13:26;6.07;;;3.33;;
21820;SDS011;11073;48.586;12.066;2023-04-23T07:15:55;3.45;;;3.10;;
21820;SDS011;11073;48.586;12.066;2023-04-23T07:18:23;5.97;;;3.10;;
21820;SDS011;11073;48.586;12.066;2023-04-23T07:20:52;7.40;;;3.20;;
21820;SDS011;11073;48.586;12.066;2023-04-23T07:23:20;3.47;;;2.50;;
21820;SDS011;11073;48.586;12.066;2023-04-23T07:25:49;3.95;;;2.90;;
21820;SDS011;11073;48.586;12.066;2023-04-23T07:28:19;7.63;;;3.00;;
21820;SDS011;11073;48.586;12.066;2023-04-23T07:30:49;3.90;;;2.80;;
21820;SDS011;11073;48.586;12.066;2023-04-23T07:33:18;6.47;;;3.28;;
21820;SDS011;11073;48.586;12.066;2023-04-23T07:35:46;3.58;;;2.97;;
21820;SDS011;11073;48.586;12.066;2023-04-23T07:38:15;6.72;;;3.58;;
21820;SDS011;11073;48.586;12.066;2023-04-23T07:40:44;5.57;;;3.75;;
21820;SDS011;11073;48.586;12.066;2023-04-23T07:43:13;5.63;;;3.30;;
21820;SDS011;11073;48.586;12.066;2023-04-23T07:45:44;4.75;;;3.33;;
21820;SDS011;11073;48.586;12.066;2023-04-23T07:48:13;3.80;;;2.83;;
21820;SDS011;11073;48.586;12.066;2023-04-23T07:50:41;6.45;;;3.67;;
21820;SDS011;11073;48.586;12.066;2023-04-23T07:53:11;5.75;;;3.40;;
21820;SDS011;11073;48.586;12.066;2023-04-23T07:55:40;7.38;;;3.90;;
21820;SDS011;11073;48.586;12.066;2023-04-23T07:58:09;5.22;;;4.03;;
21820;SDS011;11073;48.586;12.066;2023-04-23T08:00:38;7.15;;;3.60;;
21820;SDS011;11073;48.586;12.066;2023-04-23T08:03:08;5.30;;;3.80;;
21820;SDS011;11073;48.586;12.066;2023-04-23T08:05:37;3.90;;;3.13;;
21820;SDS011;11073;48.586;12.066;2023-04-23T08:08:07;4.57;;;3.60;;
21820;SDS011;11073;48.586;12.066;2023-04-23T08:10:36;4.50;;;3.15;;
21820;SDS011;11073;48.586;12.066;2023-04-23T08:13:05;3.25;;;2.95;;
21820;SDS011;11073;48.586;12.066;2023-04-23T08:15:33;3.83;;;2.60;;
21820;SDS011;11073;48.586;12.066;2023-04-23T08:18:02;4.85;;;3.03;;
21820;SDS011;11073;48.586;12.066;2023-04-23T08:20:34;5.32;;;3.20;;
21820;SDS011;11073;48.586;12.066;2023-04-23T08:23:03;3.38;;;2.50;;
21820;SDS011;11073;48.586;12.066;2023-04-23T08:25:32;4.90;;;3.40;;
21820;SDS011;11073;48.586;12.066;2023-04-23T08:28:01;3.10;;;2.72;;
21820;SDS011;11073;48.586;12.066;2023-04-23T08:30:29;3.45;;;3.05;;
21820;SDS011;11073;48.586;12.066;2023-04-23T08:32:58;5.47;;;3.50;;
21820;SDS011;11073;48.586;12.066;2023-04-23T08:35:27;4.03;;;2.90;;
21820;SDS011;11073;48.586;12.066;2023-04-23T08:37:59;7.45;;;2.92;;
21820;SDS011;11073;48.586;12.066;2023-04-23T08:40:28;5.63;;;3.28;;
21820;SDS011;11073;48.586;12.066;2023-04-23T08:43:00;3.70;;;2.85;;
21820;SDS011;11073;48.586;12.066;2023-04-23T08:45:30;6.38;;;3.72;;
21820;SDS011;11073;48.586;12.066;2023-04-23T08:52:09;4.47;;;2.90;;
21820;SDS011;11073;48.586;12.066;2023-04-23T09:02:41;3.00;;;2.63;;
21820;SDS011;11073;48.586;12.066;2023-04-23T09:05:16;4.97;;;2.80;;
21820;SDS011;11073;48.586;12.066;2023-04-23T09:07:45;5.78;;;3.33;;
21820;SDS011;11073;48.586;12.066;2023-04-23T09:10:14;4.05;;;2.90;;
21820;SDS011;11073;48.586;12.066;2023-04-23T09:12:45;4.35;;;3.08;;
21820;SDS011;11073;48.586;12.066;2023-04-23T09:15:15;3.80;;;2.35;;
21820;SDS011;11073;48.586;12.066;2023-04-23T09:17:45;4.80;;;3.05;;
21820;SDS011;11073;48.586;12.066;2023-04-23T09:20:33;3.45;;;2.60;;
21820;SDS011;11073;48.586;12.066;2023-04-23T09:23:05;3.60;;;2.92;;
21820;SDS011;11073;48.586;12.066;2023-04-23T09:25:34;3.88;;;2.90;;
21820;SDS011;11073;48.586;12.066;2023-04-23T09:28:05;5.15;;;3.78;;
21820;SDS011;11073;48.586;12.066;2023-04-23T09:30:39;3.38;;;3.03;;
21820;SDS011;11073;48.586;12.066;2023-04-23T09:33:12;2.90;;;2.60;;
21820;SDS011;11073;48.586;12.066;2023-04-23T09:35:43;3.33;;;2.35;;
21820;SDS011;11073;48.586;12.066;2023-04-23T09:38:15;3.35;;;2.72;;
21820;SDS011;11073;48.586;12.066;2023-04-23T09:40:47;3.55;;;2.75;;
21820;SDS011;11073;48.586;12.066;2023-04-23T09:43:17;3.53;;;2.60;;
21820;SDS011;11073;48.586;12.066;2023-04-23T09:45:46;3.03;;;2.80;;
21820;SDS011;11073;48.586;12.066;2023-04-23T09:48:16;3.22;;;2.70;;
21820;SDS011;11073;48.586;12.066;2023-04-23T09:50:45;3.95;;;3.40;;
21820;SDS011;11073;48.586;12.066;2023-04-23T09:53:14;4.88;;;3.65;;
21820;SDS011;11073;48.586;12.066;2023-04-23T09:55:42;3.90;;;3.40;;
21820;SDS011;11073;48.586;12.066;2023-04-23T09:58:12;5.40;;;3.20;;
21820;SDS011;11073;48.586;12.066;2023-04-23T10:00:42;5.47;;;3.88;;
21820;SDS011;11073;48.586;12.066;2023-04-23T10:03:11;4.60;;;4.00;;
21820;SDS011;11073;48.586;12.066;2023-04-23T10:05:42;8.57;;;4.13;;
21820;SDS011;11073;48.586;12.066;2023-04-23T10:08:28;5.78;;;4.70;;
21820;SDS011;11073;48.586;12.066;2023-04-23T10:10:59;5.28;;;4.43;;
21820;SDS011;11073;48.586;12.066;2023-04-23T10:13:46;5.97;;;3.97;;
21820;SDS011;11073;48.586;12.066;2023-04-23T10:16:16;4.88;;;3.70;;
21820;SDS011;11073;48.586;12.066;2023-04-23T10:18:54;4.93;;;3.10;;
21820;SDS011;11073;48.586;12.066;2023-04-23T10:21:29;3.63;;;3.13;;
21820;SDS011;11073;48.586;12.066;2023-04-23T10:24:18;6.45;;;3.90;;
21820;SDS011;11073;48.586;12.066;2023-04-23T10:26:51;4.80;;;3.88;;
21820;SDS011;11073;48.586;12.066;2023-04-23T10:29:24;4.53;;;3.72;;
21820;SDS011;11073;48.586;12.066;2023-04-23T10:31:55;4.20;;;3.80;;
21820;SDS011;11073;48.586;12.066;2023-04-23T10:34:25;5.63;;;3.83;;
21820;SDS011;11073;48.586;12.066;2023-04-23T10:36:58;5.85;;;3.72;;
21820;SDS011;11073;48.586;12.066;2023-04-23T10:39:29;4.95;;;3.33;;
21820;SDS011;11073;48.586;12.066;2023-04-23T10:42:00;5.88;;;4.03;;
21820;SDS011;11073;48.586;12.066;2023-04-23T10:44:33;3.83;;;3.42;;
21820;SDS011;11073;48.586;12.066;2023-04-23T10:47:08;4.38;;;3.10;;
21820;SDS011;11073;48.586;12.066;2023-04-23T10:49:41;2.55;;;2.35;;
21820;SDS011;11073;48.586;12.066;2023-04-23T10:52:13;3.10;;;2.17;;
21820;SDS011;11073;48.586;12.066;2023-04-23T10:54:49;2.92;;;2.60;;
21820;SDS011;11073;48.586;12.066;2023-04-23T10:57:25;3.15;;;2.53;;
21820;SDS011;11073;48.586;12.066;2023-04-23T10:59:54;3.55;;;2.90;;
21820;SDS011;11073;48.586;12.066;2023-04-23T11:02:25;5.15;;;2.60;;
21820;SDS011;11073;48.586;12.066;2023-04-23T11:05:10;4.07;;;2.33;;
21820;SDS011;11073;48.586;12.066;2023-04-23T11:07:41;4.43;;;2.72;;
21820;SDS011;11073;48.586;12.066;2023-04-23T11:10:10;4.72;;;2.38;;
21820;SDS011;11073;48.586;12.066;2023-04-23T11:12:40;5.45;;;3.28;;
21820;SDS011;11073;48.586;12.066;2023-04-23T11:15:11;4.50;;;2.72;;
21820;SDS011;11073;48.586;12.066;2023-04-23T11:17:59;3.22;;;2.25;;
21820;SDS011;11073;48.586;12.066;2023-04-23T11:20:29;3.42;;;2.83;;
21820;SDS011;11073;48.586;12.066;2023-04-23T11:23:01;3.20;;;2.72;;
21820;SDS011;11073;48.586;12.066;2023-04-23T11:25:30;3.25;;;2.47;;
21820;SDS011;11073;48.586;12.066;2023-04-23T11:27:58;5.40;;;2.83;;
21820;SDS011;11073;48.586;12.066;2023-04-23T11:30:27;3.08;;;2.53;;
21820;SDS011;11073;48.586;12.066;2023-04-23T11:32:57;2.63;;;2.40;;
21820;SDS011;11073;48.586;12.066;2023-04-23T11:35:28;4.55;;;2.40;;
21820;SDS011;11073;48.586;12.066;2023-04-23T11:38:08;3.28;;;2.63;;
21820;SDS011;11073;48.586;12.066;2023-04-23T11:40:37;3.65;;;2.70;;
21820;SDS011;11073;48.586;12.066;2023-04-23T11:43:06;3.80;;;2.55;;
21820;SDS011;11073;48.586;12.066;2023-04-23T11:45:35;3.00;;;2.55;;
21820;SDS011;11073;48.586;12.066;2023-04-23T11:48:05;3.55;;;2.75;;
21820;SDS011;11073;48.586;12.066;2023-04-23T11:50:34;3.70;;;3.03;;
21820;SDS011;11073;48.586;12.066;2023-04-23T11:53:05;4.22;;;2.70;;
21820;SDS011;11073;48.586;12.066;2023-04-23T11:55:37;3.17;;;2.70;;
21820;SDS011;11073;48.586;12.066;2023-04-23T11:58:10;5.90;;;3.17;;
21820;SDS011;11073;48.586;12.066;2023-04-23T12:00:39;4.13;;;2.92;;
21820;SDS011;11073;48.586;12.066;2023-04-23T12:03:08;4.60;;;2.92;;
21820;SDS011;11073;48.586;12.066;2023-04-23T12:05:39;5.93;;;2.92;;
21820;SDS011;11073;48.586;12.066;2023-04-23T12:08:11;3.75;;;2.90;;
21820;SDS011;11073;48.586;12.066;2023-04-23T12:10:45;3.10;;;2.60;;
21820;SDS011;11073;48.586;12.066;2023-04-23T12:13:15;2.83;;;2.47;;
21820;SDS011;11073;48.586;12.066;2023-04-23T12:15:45;4.35;;;3.00;;
21820;SDS011;11073;48.586;12.066;2023-04-23T12:18:14;4.05;;;2.65;;
21820;SDS011;11073;48.586;12.066;2023-04-23T12:20:44;3.25;;;2.75;;
21820;SDS011;11073;48.586;12.066;2023-04-23T12:23:12;2.65;;;2.33;;
21820;SDS011;11073;48.586;12.066;2023-04-23T12:25:42;3.13;;;2.78;;
21820;SDS011;11073;48.586;12.066;2023-04-23T12:28:12;2.83;;;2.50;;
21820;SDS011;11073;48.586;12.066;2023-04-23T12:30:42;3.70;;;2.67;;
21820;SDS011;11073;48.586;12.066;2023-04-23T12:33:11;4.70;;;3.50;;
21820;SDS011;11073;48.586;12.066;2023-04-23T12:35:41;3.88;;;2.67;;
21820;SDS011;11073;48.586;12.066;2023-04-23T12:40:59;2.90;;;2.70;;
21820;SDS011;11073;48.586;12.066;2023-04-23T12:43:28;5.20;;;3.05;;
21820;SDS011;11073;48.586;12.066;2023-04-23T12:45:56;3.22;;;2.72;;
21820;SDS011;11073;48.586;12.066;2023-04-23T12:48:26;3.38;;;2.38;;
21820;SDS011;11073;48.586;12.066;2023-04-23T12:50:54;3.03;;;2.75;;
21820;SDS011;11073;48.586;12.066;2023-04-23T12:53:23;3.42;;;2.80;;
21820;SDS011;11073;48.586;12.066;2023-04-23T12:55:51;3.72;;;2.50;;
21820;SDS011;11073;48.586;12.066;2023-04-23T12:58:21;3.75;;;3.20;;
21820;SDS011;11073;48.586;12.066;2023-04-23T13:00:51;3.70;;;2.60;;
21820;SDS011;11073;48.586;12.066;2023-04-23T13:03:19;3.70;;;2.78;;
21820;SDS011;11073;48.586;12.066;2023-04-23T13:05:48;3.03;;;2.72;;
21820;SDS011;11073;48.586;12.066;2023-04-23T13:08:17;4.18;;;2.60;;
21820;SDS011;11073;48.586;12.066;2023-04-23T13:10:46;3.67;;;2.45;;
21820;SDS011;11073;48.586;12.066;2023-04-23T13:13:16;3.33;;;2.30;;
21820;SDS011;11073;48.586;12.066;2023-04-23T13:15:46;2.90;;;2.00;;
21820;SDS011;11073;48.586;12.066;2023-04-23T13:18:14;2.97;;;2.08;;
21820;SDS011;11073;48.586;12.066;2023-04-23T13:20:43;2.53;;;1.75;;
21820;SDS011;11073;48.586;12.066;2023-04-23T13:23:12;2.72;;;2.28;;
21820;SDS011;11073;48.586;12.066;2023-04-23T13:25:41;2.65;;;2.10;;
21820;SDS011;11073;48.586;12.066;2023-04-23T13:28:10;3.00;;;2.08;;
21820;SDS011;11073;48.586;12.066;2023-04-23T13:30:38;2.35;;;2.15;;
21820;SDS011;11073;48.586;12.066;2023-04-23T13:33:09;2.67;;;1.90;;
21820;SDS011;11073;48.586;12.066;2023-04-23T13:35:37;3.10;;;1.60;;
21820;SDS011;11073;48.586;12.066;2023-04-23T13:38:06;1.98;;;1.67;;
21820;SDS011;11073;48.586;12.066;2023-04-23T13:40:35;2.03;;;1.85;;
21820;SDS011;11073;48.586;12.066;2023-04-23T13:43:04;2.90;;;2.10;;
21820;SDS011;11073;48.586;12.066;2023-04-23T13:45:33;2.78;;;2.20;;
21820;SDS011;11073;48.586;12.066;2023-04-23T13:48:01;3.10;;;2.40;;
21820;SDS011;11073;48.586;12.066;2023-04-23T13:50:32;2.47;;;2.20;;
21820;SDS011;11073;48.586;12.066;2023-04-23T13:53:02;4.05;;;1.90;;
21820;SDS011;11073;48.586;12.066;2023-04-23T13:55:31;3.63;;;2.47;;
21820;SDS011;11073;48.586;12.066;2023-04-23T13:58:00;3.28;;;2.08;;
21820;SDS011;11073;48.586;12.066;2023-04-23T14:00:29;3.08;;;2.35;;
21820;SDS011;11073;48.586;12.066;2023-04-23T14:02:58;2.80;;;2.40;;
21820;SDS011;11073;48.586;12.066;2023-04-23T14:05:27;3.05;;;2.17;;
21820;SDS011;11073;48.586;12.066;2023-04-23T14:07:58;3.28;;;2.53;;
21820;SDS011;11073;48.586;12.066;2023-04-23T14:10:27;2.63;;;2.30;;
21820;SDS011;11073;48.586;12.066;2023-04-23T14:12:55;3.03;;;2.10;;
21820;SDS011;11073;48.586;12.066;2023-04-23T14:15:24;4.28;;;2.65;;
21820;SDS011;11073;48.586;12.066;2023-04-23T14:17:53;3.28;;;2.50;;
21820;SDS011;11073;48.586;12.066;2023-04-23T14:20:22;2.28;;;1.95;;
21820;SDS011;11073;48.586;12.066;2023-04-23T14:22:54;2.80;;;2.20;;
21820;SDS011;11073;48.586;12.066;2023-04-23T14:25:28;3.35;;;2.70;;
21820;SDS011;11073;48.586;12.066;2023-04-23T14:27:59;3.85;;;2.33;;
21820;SDS011;11073;48.586;12.066;2023-04-23T14:30:30;4.13;;;2.30;;
21820;SDS011;11073;48.586;12.066;2023-04-23T14:32:59;3.08;;;2.10;;
21820;SDS011;11073;48.586;12.066;2023-04-23T14:35:28;3.45;;;2.08;;
21820;SDS011;11073;48.586;12.066;2023-04-23T14:38:09;3.05;;;2.08;;
21820;SDS011;11073;48.586;12.066;2023-04-23T14:40:39;5.07;;;2.75;;
21820;SDS011;11073;48.586;12.066;2023-04-23T14:43:08;2.75;;;1.83;;
21820;SDS011;11073;48.586;12.066;2023-04-23T14:45:42;4.90;;;1.95;;
21820;SDS011;11073;48.586;12.066;2023-04-23T14:48:11;3.40;;;2.25;;
21820;SDS011;11073;48.586;12.066;2023-04-23T14:50:40;2.75;;;2.20;;
21820;SDS011;11073;48.586;12.066;2023-04-23T14:53:08;3.28;;;2.25;;
21820;SDS011;11073;48.586;12.066;2023-04-23T14:55:38;3.92;;;2.22;;
21820;SDS011;11073;48.586;12.066;2023-04-23T14:58:09;2.97;;;2.05;;
21820;SDS011;11073;48.586;12.066;2023-04-23T15:00:38;2.47;;;2.10;;
21820;SDS011;11073;48.586;12.066;2023-04-23T15:03:06;3.45;;;2.50;;
21820;SDS011;11073;48.586;12.066;2023-04-23T15:05:37;2.63;;;2.05;;